EJA1 TTPP-TBPB
Flight info
| Callsign | EJA1 |
|---|---|
| Flight time | 0h 37m |
| Altitude | 29000 |
| Route | POS UR515 BGI |
| Aircraft | B738/M-SDE2E3FGHIRWXY/LB1 |
Departure
| Time | 2026-05-04 21:50 |
|---|---|
| Airport | Piarco International Airport (TTPP) |
Arrival
| Time | 2026-05-04 22:28 |
|---|---|
| Airport | Grantley Adams International Airport (TBPB) |
| Time | Latitude | Longitude | Altitude | Speed | Heading |
|---|---|---|---|---|---|
| 2026-05-04 21:11 | 10.59955 | -61.33821 | 51 ft | 0 kts | 309° |
| 2026-05-04 21:42 | 10.59943 | -61.33805 | 49 ft | 1 kts | 309° |
| 2026-05-04 21:42 | 10.59930 | -61.33785 | 46 ft | 4 kts | 291° |
| 2026-05-04 21:43 | 10.59926 | -61.33759 | 46 ft | 4 kts | 257° |
| 2026-05-04 21:43 | 10.59937 | -61.33739 | 47 ft | 4 kts | 203° |
| 2026-05-04 21:43 | 10.59946 | -61.33736 | 49 ft | 0 kts | 180° |
| 2026-05-04 21:45 | 10.59944 | -61.33736 | 49 ft | 2 kts | 180° |
| 2026-05-04 21:46 | 10.59905 | -61.33736 | 48 ft | 8 kts | 180° |
| 2026-05-04 21:46 | 10.59843 | -61.33735 | 52 ft | 10 kts | 176° |
| 2026-05-04 21:46 | 10.59771 | -61.33732 | 52 ft | 11 kts | 179° |
| 2026-05-04 21:46 | 10.59709 | -61.33768 | 52 ft | 12 kts | 256° |
| 2026-05-04 21:47 | 10.59708 | -61.33858 | 51 ft | 14 kts | 269° |
| 2026-05-04 21:47 | 10.59708 | -61.33965 | 50 ft | 16 kts | 270° |
| 2026-05-04 21:47 | 10.59708 | -61.34088 | 49 ft | 19 kts | 270° |
| 2026-05-04 21:47 | 10.59709 | -61.34228 | 47 ft | 21 kts | 269° |
| 2026-05-04 21:48 | 10.59708 | -61.34383 | 46 ft | 23 kts | 270° |
| 2026-05-04 21:48 | 10.59691 | -61.34512 | 45 ft | 10 kts | 231° |
| 2026-05-04 21:48 | 10.59633 | -61.34526 | 45 ft | 0 kts | 174° |
| 2026-05-04 21:49 | 10.59625 | -61.34526 | 45 ft | 2 kts | 174° |
| 2026-05-04 21:49 | 10.59600 | -61.34524 | 44 ft | 5 kts | 179° |
| 2026-05-04 21:49 | 10.59550 | -61.34517 | 44 ft | 9 kts | 149° |
| 2026-05-04 21:49 | 10.59535 | -61.34460 | 45 ft | 9 kts | 89° |
| 2026-05-04 21:50 | 10.59535 | -61.34376 | 46 ft | 26 kts | 89° |
| 2026-05-04 21:50 | 10.59536 | -61.33859 | 51 ft | 118 kts | 89° |
| 2026-05-04 21:50 | 10.59530 | -61.32785 | 313 ft | 170 kts | 91° |
| 2026-05-04 21:50 | 10.59508 | -61.31622 | 1555 ft | 166 kts | 93° |
| 2026-05-04 21:51 | 10.59472 | -61.30542 | 3019 ft | 138 kts | 90° |
| 2026-05-04 21:51 | 10.59532 | -61.29530 | 3886 ft | 154 kts | 82° |
| 2026-05-04 21:51 | 10.59832 | -61.28380 | 4482 ft | 182 kts | 70° |
| 2026-05-04 21:51 | 10.60547 | -61.27305 | 5365 ft | 190 kts | 45° |
| 2026-05-04 21:52 | 10.61662 | -61.26540 | 6323 ft | 198 kts | 36° |
| 2026-05-04 21:52 | 10.62839 | -61.25714 | 6739 ft | 220 kts | 40° |
| 2026-05-04 21:52 | 10.64169 | -61.24691 | 6888 ft | 254 kts | 42° |
| 2026-05-04 21:52 | 10.65603 | -61.23507 | 7136 ft | 285 kts | 42° |
| 2026-05-04 21:53 | 10.67230 | -61.22152 | 7541 ft | 309 kts | 42° |
| 2026-05-04 21:53 | 10.68872 | -61.20774 | 8881 ft | 285 kts | 43° |
| 2026-05-04 21:53 | 10.70250 | -61.19580 | 10985 ft | 252 kts | 45° |
| 2026-05-04 21:53 | 10.71643 | -61.18335 | 11270 ft | 284 kts | 45° |
| 2026-05-04 21:54 | 10.73198 | -61.16943 | 11536 ft | 313 kts | 43° |
| 2026-05-04 21:54 | 10.74961 | -61.15487 | 11716 ft | 339 kts | 41° |
| 2026-05-04 21:54 | 10.76880 | -61.13948 | 12046 ft | 357 kts | 41° |
| 2026-05-04 21:54 | 10.78830 | -61.12397 | 12638 ft | 364 kts | 41° |
| 2026-05-04 21:55 | 10.80831 | -61.10802 | 13379 ft | 367 kts | 41° |
| 2026-05-04 21:55 | 10.82846 | -61.09190 | 14076 ft | 369 kts | 41° |
| 2026-05-04 21:55 | 10.84871 | -61.07563 | 14710 ft | 372 kts | 41° |
| 2026-05-04 21:55 | 10.86827 | -61.05985 | 15302 ft | 375 kts | 41° |
| 2026-05-04 21:56 | 10.88881 | -61.04326 | 15923 ft | 378 kts | 40° |
| 2026-05-04 21:56 | 10.90953 | -61.02651 | 16530 ft | 381 kts | 40° |
| 2026-05-04 21:56 | 10.93039 | -61.00963 | 17124 ft | 384 kts | 40° |
| 2026-05-04 21:56 | 10.95114 | -60.99283 | 17707 ft | 387 kts | 40° |
| 2026-05-04 21:57 | 10.97230 | -60.97569 | 18288 ft | 390 kts | 40° |
| 2026-05-04 21:57 | 10.99369 | -60.95836 | 18766 ft | 394 kts | 40° |
| 2026-05-04 21:57 | 11.01530 | -60.94086 | 19183 ft | 399 kts | 39° |
| 2026-05-04 21:57 | 11.03716 | -60.92314 | 19604 ft | 404 kts | 39° |
| 2026-05-04 21:58 | 11.05933 | -60.90517 | 20037 ft | 408 kts | 39° |
| 2026-05-04 21:58 | 11.08164 | -60.88708 | 20490 ft | 411 kts | 39° |
| 2026-05-04 21:58 | 11.10407 | -60.86889 | 20936 ft | 415 kts | 39° |
| 2026-05-04 21:58 | 11.12644 | -60.85076 | 21394 ft | 418 kts | 39° |
| 2026-05-04 21:59 | 11.14935 | -60.83231 | 21768 ft | 423 kts | 37° |
| 2026-05-04 21:59 | 11.17335 | -60.81450 | 22171 ft | 427 kts | 35° |
| 2026-05-04 21:59 | 11.19801 | -60.79729 | 22583 ft | 431 kts | 34° |
| 2026-05-04 21:59 | 11.22309 | -60.78017 | 22894 ft | 437 kts | 33° |
| 2026-05-04 22:00 | 11.24847 | -60.76292 | 23270 ft | 441 kts | 33° |
| 2026-05-04 22:00 | 11.27404 | -60.74548 | 23631 ft | 444 kts | 33° |
| 2026-05-04 22:00 | 11.29981 | -60.72778 | 23974 ft | 446 kts | 33° |
| 2026-05-04 22:00 | 11.32538 | -60.71012 | 24371 ft | 447 kts | 33° |
| 2026-05-04 22:01 | 11.35118 | -60.69223 | 24752 ft | 448 kts | 32° |
| 2026-05-04 22:01 | 11.37698 | -60.67432 | 25095 ft | 450 kts | 32° |
| 2026-05-04 22:01 | 11.40291 | -60.65629 | 25427 ft | 452 kts | 33° |
| 2026-05-04 22:01 | 11.42896 | -60.63815 | 25734 ft | 455 kts | 32° |
| 2026-05-04 22:02 | 11.45521 | -60.61987 | 26040 ft | 457 kts | 32° |
| 2026-05-04 22:02 | 11.48157 | -60.60152 | 26356 ft | 459 kts | 32° |
| 2026-05-04 22:02 | 11.49906 | -60.58934 | 26549 ft | 460 kts | 32° |
| 2026-05-04 22:02 | 11.52556 | -60.57088 | 26846 ft | 462 kts | 32° |
| 2026-05-04 22:03 | 11.56085 | -60.54630 | 27223 ft | 464 kts | 32° |
| 2026-05-04 22:03 | 11.58764 | -60.52763 | 27519 ft | 466 kts | 32° |
| 2026-05-04 22:03 | 11.61444 | -60.50896 | 27794 ft | 468 kts | 32° |
| 2026-05-04 22:03 | 11.63256 | -60.49632 | 27978 ft | 469 kts | 32° |
| 2026-05-04 22:04 | 11.65959 | -60.47748 | 28343 ft | 468 kts | 32° |
| 2026-05-04 22:04 | 11.68641 | -60.45877 | 28734 ft | 467 kts | 31° |
| 2026-05-04 22:04 | 11.71334 | -60.43998 | 28989 ft | 468 kts | 31° |
| 2026-05-04 22:05 | 11.76723 | -60.40239 | 28996 ft | 474 kts | 31° |
| 2026-05-04 22:05 | 11.82157 | -60.36445 | 28989 ft | 472 kts | 32° |
| 2026-05-04 22:06 | 11.87569 | -60.32664 | 28990 ft | 471 kts | 32° |
| 2026-05-04 22:06 | 11.92984 | -60.28880 | 28986 ft | 471 kts | 32° |
| 2026-05-04 22:07 | 11.98391 | -60.25101 | 28996 ft | 471 kts | 32° |
| 2026-05-04 22:07 | 12.03769 | -60.21339 | 28991 ft | 471 kts | 32° |
| 2026-05-04 22:08 | 12.09180 | -60.17552 | 28996 ft | 472 kts | 32° |
| 2026-05-04 22:08 | 12.14616 | -60.13746 | 28999 ft | 472 kts | 32° |
| 2026-05-04 22:09 | 12.20008 | -60.09969 | 29002 ft | 473 kts | 32° |
| 2026-05-04 22:09 | 12.22729 | -60.08062 | 28725 ft | 475 kts | 32° |
| 2026-05-04 22:09 | 12.25482 | -60.06134 | 27759 ft | 478 kts | 32° |
| 2026-05-04 22:09 | 12.28223 | -60.04212 | 26730 ft | 477 kts | 33° |
| 2026-05-04 22:10 | 12.30964 | -60.02289 | 25621 ft | 479 kts | 33° |
| 2026-05-04 22:10 | 12.33728 | -60.00349 | 24650 ft | 478 kts | 33° |
| 2026-05-04 22:10 | 12.36465 | -59.98428 | 23770 ft | 475 kts | 33° |
| 2026-05-04 22:10 | 12.39167 | -59.96531 | 22804 ft | 471 kts | 34° |
| 2026-05-04 22:11 | 12.41803 | -59.94680 | 22027 ft | 461 kts | 34° |
| 2026-05-04 22:11 | 12.44432 | -59.92835 | 21325 ft | 452 kts | 34° |
| 2026-05-04 22:11 | 12.47021 | -59.91017 | 20430 ft | 447 kts | 34° |
| 2026-05-04 22:11 | 12.49572 | -59.89225 | 19532 ft | 443 kts | 35° |
| 2026-05-04 22:12 | 12.52083 | -59.87460 | 18751 ft | 436 kts | 35° |
| 2026-05-04 22:12 | 12.54584 | -59.85702 | 18012 ft | 429 kts | 35° |
| 2026-05-04 22:12 | 12.57034 | -59.83980 | 17019 ft | 428 kts | 35° |
| 2026-05-04 22:12 | 12.59442 | -59.82288 | 16218 ft | 421 kts | 36° |
| 2026-05-04 22:13 | 12.61851 | -59.80593 | 15455 ft | 415 kts | 36° |
| 2026-05-04 22:13 | 12.64238 | -59.78914 | 14596 ft | 413 kts | 36° |
| 2026-05-04 22:13 | 12.66585 | -59.77263 | 13796 ft | 409 kts | 37° |
| 2026-05-04 22:13 | 12.68920 | -59.75619 | 13051 ft | 401 kts | 36° |
| 2026-05-04 22:14 | 12.71233 | -59.73990 | 12228 ft | 399 kts | 36° |
| 2026-05-04 22:14 | 12.73500 | -59.72393 | 11390 ft | 396 kts | 37° |
| 2026-05-04 22:14 | 12.75719 | -59.70831 | 10900 ft | 381 kts | 37° |
| 2026-05-04 22:14 | 12.77822 | -59.69353 | 10795 ft | 350 kts | 37° |
| 2026-05-04 22:15 | 12.79758 | -59.67993 | 10681 ft | 324 kts | 37° |
| 2026-05-04 22:15 | 12.81552 | -59.66730 | 10547 ft | 304 kts | 37° |
| 2026-05-04 22:15 | 12.83264 | -59.65522 | 10449 ft | 296 kts | 38° |
| 2026-05-04 22:15 | 12.84955 | -59.64325 | 10243 ft | 294 kts | 37° |
| 2026-05-04 22:16 | 12.86624 | -59.63146 | 10108 ft | 285 kts | 38° |
| 2026-05-04 22:16 | 12.88210 | -59.62027 | 9997 ft | 276 kts | 38° |
| 2026-05-04 22:16 | 12.89772 | -59.60924 | 9797 ft | 271 kts | 38° |
| 2026-05-04 22:16 | 12.91312 | -59.59836 | 9567 ft | 266 kts | 38° |
| 2026-05-04 22:17 | 12.92830 | -59.58764 | 9339 ft | 263 kts | 38° |
| 2026-05-04 22:17 | 12.94326 | -59.57707 | 9072 ft | 261 kts | 38° |
| 2026-05-04 22:17 | 12.95823 | -59.56650 | 8799 ft | 259 kts | 38° |
| 2026-05-04 22:17 | 12.97286 | -59.55617 | 8521 ft | 258 kts | 38° |
| 2026-05-04 22:18 | 12.98762 | -59.54575 | 8259 ft | 257 kts | 37° |
| 2026-05-04 22:18 | 13.00268 | -59.53585 | 7975 ft | 258 kts | 27° |
| 2026-05-04 22:18 | 13.02049 | -59.53265 | 7693 ft | 264 kts | 357° |
| 2026-05-04 22:18 | 13.03786 | -59.53879 | 7412 ft | 270 kts | 327° |
| 2026-05-04 22:19 | 13.05028 | -59.55309 | 7129 ft | 272 kts | 296° |
| 2026-05-04 22:19 | 13.05389 | -59.57195 | 6847 ft | 270 kts | 264° |
| 2026-05-04 22:19 | 13.05047 | -59.59052 | 6582 ft | 269 kts | 254° |
| 2026-05-04 22:19 | 13.04575 | -59.60922 | 6263 ft | 271 kts | 253° |
| 2026-05-04 22:20 | 13.04103 | -59.62783 | 5975 ft | 271 kts | 254° |
| 2026-05-04 22:20 | 13.03640 | -59.64666 | 5679 ft | 271 kts | 255° |
| 2026-05-04 22:20 | 13.03188 | -59.66538 | 5398 ft | 270 kts | 255° |
| 2026-05-04 22:20 | 13.02740 | -59.68408 | 5124 ft | 269 kts | 255° |
| 2026-05-04 22:21 | 13.02519 | -59.70310 | 4803 ft | 271 kts | 278° |
| 2026-05-04 22:21 | 13.03147 | -59.72070 | 4529 ft | 267 kts | 306° |
| 2026-05-04 22:21 | 13.04475 | -59.73348 | 4289 ft | 259 kts | 334° |
| 2026-05-04 22:21 | 13.06144 | -59.73877 | 4178 ft | 244 kts | 0° |
| 2026-05-04 22:22 | 13.07764 | -59.73645 | 4059 ft | 231 kts | 24° |
| 2026-05-04 22:22 | 13.09095 | -59.72824 | 3960 ft | 218 kts | 44° |
| 2026-05-04 22:22 | 13.10061 | -59.71673 | 3855 ft | 208 kts | 60° |
| 2026-05-04 22:22 | 13.10407 | -59.70318 | 3733 ft | 198 kts | 100° |
| 2026-05-04 22:23 | 13.09788 | -59.69069 | 3674 ft | 197 kts | 121° |
| 2026-05-04 22:23 | 13.09051 | -59.67883 | 3453 ft | 201 kts | 118° |
| 2026-05-04 22:23 | 13.08339 | -59.66651 | 3254 ft | 198 kts | 117° |
| 2026-05-04 22:23 | 13.07676 | -59.65443 | 3045 ft | 190 kts | 117° |
| 2026-05-04 22:24 | 13.07060 | -59.64301 | 2958 ft | 175 kts | 116° |
| 2026-05-04 22:24 | 13.06458 | -59.63217 | 2659 ft | 174 kts | 117° |
| 2026-05-04 22:24 | 13.05846 | -59.62129 | 2322 ft | 178 kts | 118° |
| 2026-05-04 22:24 | 13.05226 | -59.61055 | 2118 ft | 168 kts | 118° |
| 2026-05-04 22:25 | 13.04814 | -59.60011 | 1917 ft | 155 kts | 96° |
| 2026-05-04 22:25 | 13.04913 | -59.58934 | 1708 ft | 148 kts | 74° |
| 2026-05-04 22:25 | 13.05207 | -59.57912 | 1530 ft | 159 kts | 75° |
| 2026-05-04 22:25 | 13.05485 | -59.56801 | 1244 ft | 159 kts | 77° |
| 2026-05-04 22:26 | 13.05729 | -59.55758 | 1175 ft | 144 kts | 76° |
| 2026-05-04 22:26 | 13.06009 | -59.54755 | 914 ft | 149 kts | 73° |
| 2026-05-04 22:26 | 13.06323 | -59.53757 | 785 ft | 147 kts | 76° |
| 2026-05-04 22:26 | 13.06606 | -59.52738 | 623 ft | 147 kts | 77° |
| 2026-05-04 22:27 | 13.06857 | -59.51742 | 462 ft | 141 kts | 80° |
| 2026-05-04 22:27 | 13.07084 | -59.50787 | 258 ft | 136 kts | 79° |
| 2026-05-04 22:27 | 13.07291 | -59.49913 | 176 ft | 109 kts | 76° |
| 2026-05-04 22:27 | 13.07434 | -59.49327 | 172 ft | 55 kts | 76° |
| 2026-05-04 22:28 | 13.07509 | -59.49044 | 172 ft | 29 kts | 64° |
| 2026-05-04 22:28 | 13.07631 | -59.48898 | 172 ft | 23 kts | 43° |
| 2026-05-04 22:28 | 13.07730 | -59.48791 | 171 ft | 19 kts | 50° |
| 2026-05-04 22:28 | 13.07787 | -59.48702 | 171 ft | 14 kts | 75° |
| 2026-05-04 22:29 | 13.07797 | -59.48663 | 171 ft | 0 kts | 76° |
| 2026-05-04 22:29 | 13.07798 | -59.48659 | 171 ft | 1 kts | 76° |
| 2026-05-04 22:29 | 13.07800 | -59.48651 | 171 ft | 3 kts | 75° |
| 2026-05-04 22:29 | 13.07817 | -59.48604 | 170 ft | 5 kts | 48° |
| 2026-05-04 22:30 | 13.07858 | -59.48608 | 170 ft | 8 kts | 342° |
| 2026-05-04 22:30 | 13.07910 | -59.48622 | 171 ft | 4 kts | 347° |
| 2026-05-04 22:30 | 13.07917 | -59.48624 | 171 ft | 1 kts | 347° |
| 2026-05-04 22:35 | 13.07916 | -59.48625 | 171 ft | 0 kts | 345° |